Pays
Station

 

Conditions  météo  pour  Da Nang  -  Viet Nam    Viet Nam

  
34 °C
    
 
 

METAR pour Da Nang :

VVDN 201000Z 06003KT 020V120 9999 FEW015 FEW017CB 34/26 Q1005 NOSIG

 

Voici le bulletin pour Da Nang - Viet Nam.
 
Le bulletin a été fait il y a 33 minutes, à 10:00 UTC .
Le vent soufflait à la vitesse de 1.5 mètres par seconde de Est/Nord-est (060°), variant entre Nord/Nord-est (020°) et Est/Sud-est (120°).
 
La température était de 34 °C, avec un point de rosée à 26 °C.
La température ressentie était de 43 °C.
 
La pression atmosphérique était de 1005 hPa.
L'humidité relative était de 63.2%.
 
Il y avait 1 à 2/8ème de nébulosité à une hauteur de 457 mètres et 1 à 2/8ème cumulonimbus de nébulosité à une hauteur de 518 mètres.
 
La visibilité globale était de supérieure à 10 kilomètres.
 

 
 
 

Pays :   A   B   C   D   E   F   G   H   I   J   K   L   M   N   O   P   Q   R   S   T   U   V   W   Y   Z

 

Partenaires :  Info Météo avec Met'info
Météo Marine avec MeteoMarine.net
Infos Site  |  Infos Légales  |  Crédits  |  Confidentialité
Contactez-nous  |  Ajouter aux favoris
© 2013-2019 METAR - Tous droits réservés